Makin' Progress — WDA3328 — position and weather

sailwx.info

Track history (hours):
 
Tides and Currents Weather Stations Pressure Air Temp Water Temp Dewpoint Dewpoint Depression Visibility Wind Speed Wind Dir Waves Ship Positions

Makin' Progress

Owner: WALSH JR, STANLEY, E FREETOWN, MA. More information available from US FCC via Universal Licensing System and Coast Guard Vessel Documentation Center.

Last reported at 2017-Aug-28 19:20 UTC. Time now 2017-Sep-26 11:16 UTC.
Position N 42°03' W 070°36'.
Warning: this ship's position is 28 days out of date.

Length 17 m.

Type: Sailing vessel. MMSI: 338141862.

Date/timePositionNaut miles runAvg speedWind from/ knotsBaromVisibWave heightAir tempDewpointWater temp
2017-Aug-28 19:20N 42°03' W 070°36'2 7.0
2017-Aug-28 18:59N 42°05' W 070°37'3 6.5
2017-Aug-28 18:29N 42°08' W 070°39'3 6.1
2017-Aug-28 18:00N 42°11' W 070°41'3 6.4
2017-Aug-28 17:29N 42°14' W 070°43'3 6.3
2017-Aug-28 17:00N 42°16' W 070°45'3 4.8
2017-Aug-28 16:29N 42°18' W 070°48'3 6.2
2017-Aug-28 16:00N 42°19' W 070°52'3 6.1
2017-Aug-28 15:29N 42°20' W 070°56'3 6.3
2017-Aug-28 15:00N 42°21' W 071°00'2 4.3
2017-Aug-28 14:28N 42°21' W 071°03'0 0.0
2017-Aug-26 17:54N 42°21' W 071°03'2 4.5
2017-Aug-26 17:30N 42°21' W 071°01'2 4.7
2017-Aug-26 17:00N 42°20' W 070°58'3 5.6
2017-Aug-26 16:28N 42°21' W 071°02'1 2.2
2017-Aug-26 16:00N 42°21' W 071°02'1 1.9
2017-Aug-26 15:30N 42°22' W 071°03'1 0.0
2017-Aug-24 20:55N 42°21' W 071°03'2 4.3
2017-Aug-24 20:30N 42°21' W 071°01'2 4.6
2017-Aug-24 20:00N 42°20' W 070°58'2 3.1
2017-Aug-24 19:30N 42°19' W 070°56'1 2.1
2017-Aug-24 18:58N 42°18' W 070°55'1 3.2
2017-Aug-24 18:30N 42°19' W 070°57'2 3.6
2017-Aug-24 18:00N 42°20' W 070°59'3 5.0
2017-Aug-24 17:30N 42°21' W 071°02'1 1.2
2017-Aug-24 16:52N 42°21' W 071°03'0 0.0
2017-Aug-24 00:13N 42°21' W 071°03'0 0.4
2017-Aug-23 23:54N 42°21' W 071°03'1 2.1
2017-Aug-23 23:29N 42°21' W 071°02'1 1.9
2017-Aug-23 23:00N 42°21' W 071°01'2 3.2
2017-Aug-23 22:30N 42°21' W 070°59'1 2.4
2017-Aug-23 21:59N 42°20' W 070°57'3 6.4
2017-Aug-23 21:28N 42°21' W 071°01'1 2.6
2017-Aug-23 20:59N 42°21' W 071°03'0 0.0
2017-Aug-23 00:01N 42°21' W 071°03'0 0.1
2017-Aug-22 23:55N 42°21' W 071°03'0 0.3
2017-Aug-22 23:30N 42°21' W 071°03'1 1.0
2017-Aug-22 23:00N 42°22' W 071°03'2 4.6
2017-Aug-22 22:30N 42°21' W 071°00'0 0.3
2017-Aug-22 21:33N 42°20' W 071°00'0 7.5
2017-Aug-22 21:30N 42°21' W 071°01'2 3.1
2017-Aug-22 20:56N 42°21' W 071°03'0 0.0
2017-Aug-22 00:18N 42°21' W 071°03'0 0.0
2017-Aug-21 23:54N 42°21' W 071°03'1 2.5
2017-Aug-21 23:30N 42°21' W 071°02'3 5.7
2017-Aug-21 23:00N 42°20' W 070°58'1 2.7
2017-Aug-21 22:30N 42°19' W 070°57'2 4.9
2017-Aug-21 22:00N 42°20' W 070°60'2 5.0
2017-Aug-21 21:30N 42°21' W 071°02'0 0.7
2017-Aug-21 20:59N 42°21' W 071°03'0 0.0
2017-Aug-21 20:20N 42°21' W 071°03'0 0.0
2017-Aug-21 19:53N 42°21' W 071°03'8 0.4
2017-Aug-21 02:06N 42°19' W 070°53'1 7.3
2017-Aug-21 02:00N 42°19' W 070°52'4 7.1
2017-Aug-21 01:30N 42°17' W 070°48'3 6.7
2017-Aug-21 01:00N 42°15' W 070°44'  
Track history (hours):
 
Tides and Currents Weather Stations Pressure Air Temp Water Temp Dewpoint Dewpoint Depression Visibility Wind Speed Wind Dir Waves Ship Positions

Makin' Progress

Owner: WALSH JR, STANLEY, E FREETOWN, MA. More information available from US FCC via Universal Licensing System and Coast Guard Vessel Documentation Center.

Last reported at 2017-Aug-28 19:20 UTC. Time now 2017-Sep-26 11:16 UTC.
Position N 42°03' W 070°36'.
Warning: this ship's position is 28 days out of date.

Length 17 m.

Type: Sailing vessel. MMSI: 338141862.

Date/timePositionNaut miles runAvg speedWind from/ knotsBaromVisibWave heightAir tempDewpointWater temp
2017-Aug-28 19:20N 42°03' W 070°36'2 7.0
2017-Aug-28 18:59N 42°05' W 070°37'3 6.5
2017-Aug-28 18:29N 42°08' W 070°39'3 6.1
2017-Aug-28 18:00N 42°11' W 070°41'3 6.4
2017-Aug-28 17:29N 42°14' W 070°43'3 6.3
2017-Aug-28 17:00N 42°16' W 070°45'3 4.8
2017-Aug-28 16:29N 42°18' W 070°48'3 6.2
2017-Aug-28 16:00N 42°19' W 070°52'3 6.1
2017-Aug-28 15:29N 42°20' W 070°56'3 6.3
2017-Aug-28 15:00N 42°21' W 071°00'2 4.3
2017-Aug-28 14:28N 42°21' W 071°03'0 0.0
2017-Aug-26 17:54N 42°21' W 071°03'2 4.5
2017-Aug-26 17:30N 42°21' W 071°01'2 4.7
2017-Aug-26 17:00N 42°20' W 070°58'3 5.6
2017-Aug-26 16:28N 42°21' W 071°02'1 2.2
2017-Aug-26 16:00N 42°21' W 071°02'1 1.9
2017-Aug-26 15:30N 42°22' W 071°03'1 0.0
2017-Aug-24 20:55N 42°21' W 071°03'2 4.3
2017-Aug-24 20:30N 42°21' W 071°01'2 4.6
2017-Aug-24 20:00N 42°20' W 070°58'2 3.1
2017-Aug-24 19:30N 42°19' W 070°56'1 2.1
2017-Aug-24 18:58N 42°18' W 070°55'1 3.2
2017-Aug-24 18:30N 42°19' W 070°57'2 3.6
2017-Aug-24 18:00N 42°20' W 070°59'3 5.0
2017-Aug-24 17:30N 42°21' W 071°02'1 1.2
2017-Aug-24 16:52N 42°21' W 071°03'0 0.0
2017-Aug-24 00:13N 42°21' W 071°03'0 0.4
2017-Aug-23 23:54N 42°21' W 071°03'1 2.1
2017-Aug-23 23:29N 42°21' W 071°02'1 1.9
2017-Aug-23 23:00N 42°21' W 071°01'2 3.2
2017-Aug-23 22:30N 42°21' W 070°59'1 2.4
2017-Aug-23 21:59N 42°20' W 070°57'3 6.4
2017-Aug-23 21:28N 42°21' W 071°01'1 2.6
2017-Aug-23 20:59N 42°21' W 071°03'0 0.0
2017-Aug-23 00:01N 42°21' W 071°03'0 0.1
2017-Aug-22 23:55N 42°21' W 071°03'0 0.3
2017-Aug-22 23:30N 42°21' W 071°03'1 1.0
2017-Aug-22 23:00N 42°22' W 071°03'2 4.6
2017-Aug-22 22:30N 42°21' W 071°00'0 0.3
2017-Aug-22 21:33N 42°20' W 071°00'0 7.5
2017-Aug-22 21:30N 42°21' W 071°01'2 3.1
2017-Aug-22 20:56N 42°21' W 071°03'0 0.0
2017-Aug-22 00:18N 42°21' W 071°03'0 0.0
2017-Aug-21 23:54N 42°21' W 071°03'1 2.5
2017-Aug-21 23:30N 42°21' W 071°02'3 5.7
2017-Aug-21 23:00N 42°20' W 070°58'1 2.7
2017-Aug-21 22:30N 42°19' W 070°57'2 4.9
2017-Aug-21 22:00N 42°20' W 070°60'2 5.0
2017-Aug-21 21:30N 42°21' W 071°02'0 0.7
2017-Aug-21 20:59N 42°21' W 071°03'0 0.0
2017-Aug-21 20:20N 42°21' W 071°03'0 0.0
2017-Aug-21 19:53N 42°21' W 071°03'8 0.4
2017-Aug-21 02:06N 42°19' W 070°53'1 7.3
2017-Aug-21 02:00N 42°19' W 070°52'4 7.1
2017-Aug-21 01:30N 42°17' W 070°48'3 6.7
2017-Aug-21 01:00N 42°15' W 070°44'  

Dump ship's entire track history